createdAt,value
2016-11-30T00:00:07.240Z,-3.13
2016-11-30T00:01:07.104Z,-2.79
2016-11-30T00:02:07.720Z,-2.79
2016-11-30T00:03:07.244Z,-2.80
2016-11-30T00:04:07.843Z,-2.81
2016-11-30T00:05:07.365Z,-2.80
2016-11-30T00:06:07.940Z,-2.81
2016-11-30T00:07:07.494Z,-2.82
2016-11-30T00:08:08.082Z,-2.80
2016-11-30T00:09:07.699Z,-2.78
2016-11-30T00:10:07.300Z,-2.52
2016-11-30T00:11:07.719Z,-2.54
2016-11-30T00:12:07.716Z,-2.72
2016-11-30T00:13:07.412Z,-2.82
2016-11-30T00:14:07.969Z,-2.75
2016-11-30T00:15:07.614Z,-2.73
2016-11-30T00:16:07.123Z,-2.75
2016-11-30T00:17:07.930Z,-2.73
2016-11-30T00:18:07.736Z,-3.03
2016-11-30T00:19:08.001Z,-3.10
2016-11-30T00:20:07.561Z,-3.41
2016-11-30T00:21:09.009Z,-3.13
2016-11-30T00:22:07.627Z,-3.26
2016-11-30T00:23:07.119Z,-3.36
2016-11-30T00:24:07.653Z,-3.32
2016-11-30T00:25:08.441Z,-3.27
2016-11-30T00:26:08.094Z,-3.33
2016-11-30T00:27:07.612Z,-3.19
2016-11-30T00:28:07.169Z,-3.34
2016-11-30T00:29:07.791Z,-3.18
2016-11-30T00:30:07.400Z,-3.22
2016-11-30T00:31:08.121Z,-3.33
2016-11-30T00:32:07.728Z,-3.16
2016-11-30T00:33:07.561Z,-3.07
2016-11-30T00:34:07.402Z,-3.58
2016-11-30T00:35:07.251Z,-3.40
2016-11-30T00:36:07.891Z,-3.11
2016-11-30T00:37:07.424Z,-3.09
2016-11-30T00:38:08.050Z,-3.14
2016-11-30T00:39:07.702Z,-2.85
2016-11-30T00:40:07.217Z,-3.16
2016-11-30T00:41:07.894Z,-3.30
2016-11-30T00:42:07.455Z,-2.94
2016-11-30T00:43:08.058Z,-3.08
2016-11-30T00:44:07.504Z,-3.47
2016-11-30T00:45:08.112Z,-3.47
2016-11-30T00:46:07.733Z,-3.20
2016-11-30T00:47:07.243Z,-3.14
2016-11-30T00:48:08.744Z,-3.04
2016-11-30T00:49:07.247Z,-3.36
2016-11-30T00:50:07.823Z,-3.22
2016-11-30T00:51:07.627Z,-3.53
2016-11-30T00:52:07.323Z,-3.47
2016-11-30T00:53:08.781Z,-3.66
2016-11-30T00:54:07.682Z,-3.59
2016-11-30T00:55:07.263Z,-3.44
2016-11-30T00:56:07.841Z,-3.63
2016-11-30T00:57:07.399Z,-3.42
2016-11-30T00:58:08.605Z,-3.21
2016-11-30T00:59:07.091Z,-2.93
2016-11-30T01:00:07.568Z,-2.96
2016-11-30T01:01:08.189Z,-3.29
2016-11-30T01:02:07.723Z,-3.13
2016-11-30T01:03:07.163Z,-3.21
2016-11-30T01:04:07.440Z,-3.12
2016-11-30T01:05:07.721Z,-3.05
2016-11-30T01:06:07.289Z,-3.17
2016-11-30T01:07:07.758Z,-2.96
2016-11-30T01:08:07.982Z,-2.96
2016-11-30T01:09:07.250Z,-3.28
2016-11-30T01:10:07.842Z,-3.42
2016-11-30T01:11:07.318Z,-3.74
2016-11-30T01:12:08.079Z,-3.67
2016-11-30T01:13:08.044Z,-3.65
2016-11-30T01:14:07.746Z,-3.56
2016-11-30T01:15:07.337Z,-3.56
2016-11-30T01:16:07.170Z,-3.31
2016-11-30T01:17:07.801Z,-3.42
2016-11-30T01:18:07.400Z,-3.53
2016-11-30T01:19:08.051Z,-3.34
2016-11-30T01:20:07.662Z,-3.28
2016-11-30T01:21:08.039Z,-3.25
2016-11-30T01:22:07.579Z,-3.38
2016-11-30T01:23:08.188Z,-3.41
2016-11-30T01:24:07.830Z,-3.53
2016-11-30T01:25:07.542Z,-3.34
2016-11-30T01:26:08.012Z,-3.33
2016-11-30T01:27:07.533Z,-3.18
2016-11-30T01:28:08.171Z,-3.43
2016-11-30T01:29:07.941Z,-3.56
2016-11-30T01:30:07.478Z,-3.32
2016-11-30T01:31:07.963Z,-3.32
2016-11-30T01:32:07.916Z,-3.34
2016-11-30T01:33:07.870Z,-3.24
2016-11-30T01:34:07.365Z,-3.48
2016-11-30T01:35:07.852Z,-3.55
2016-11-30T01:36:07.896Z,-3.34
2016-11-30T01:37:07.430Z,-3.27
2016-11-30T01:38:08.024Z,-3.31
2016-11-30T01:39:07.550Z,-3.37
2016-11-30T01:40:08.087Z,-3.11
2016-11-30T01:41:07.687Z,-3.04
2016-11-30T01:42:07.161Z,-3.22
2016-11-30T01:43:07.651Z,-3.53
2016-11-30T01:44:07.191Z,-3.35
2016-11-30T01:45:07.945Z,-3.26
2016-11-30T01:46:07.451Z,-3.10
2016-11-30T01:47:08.027Z,-3.46
2016-11-30T01:48:07.511Z,-3.38
2016-11-30T01:49:07.189Z,-3.18
2016-11-30T01:50:07.683Z,-3.39
2016-11-30T01:51:07.901Z,-3.25
2016-11-30T01:52:07.480Z,-3.20
2016-11-30T01:53:07.860Z,-3.67
2016-11-30T01:54:07.455Z,-3.58
2016-11-30T01:55:08.001Z,-3.61
2016-11-30T01:56:07.525Z,-3.55
2016-11-30T01:57:08.039Z,-3.41
2016-11-30T01:58:07.580Z,-3.37
2016-11-30T01:59:07.237Z,-3.54
2016-11-30T02:00:07.802Z,-3.34
2016-11-30T02:01:07.614Z,-3.31
2016-11-30T02:02:07.393Z,-3.48
2016-11-30T02:03:07.759Z,-3.40
2016-11-30T02:04:07.302Z,-3.62
2016-11-30T02:05:07.970Z,-3.41
2016-11-30T02:06:07.753Z,-3.29
2016-11-30T02:07:07.329Z,-3.40
2016-11-30T02:08:07.965Z,-3.41
2016-11-30T02:09:07.238Z,-3.40
2016-11-30T02:10:07.776Z,-3.59
2016-11-30T02:11:07.460Z,-3.53
2016-11-30T02:12:08.007Z,-3.45
2016-11-30T02:13:07.704Z,-3.54
2016-11-30T02:14:08.007Z,-3.51
2016-11-30T02:15:08.579Z,-3.58
2016-11-30T02:16:07.129Z,-3.56
2016-11-30T02:17:07.867Z,-3.46
2016-11-30T02:18:07.416Z,-3.65
2016-11-30T02:19:07.121Z,-3.51
2016-11-30T02:20:07.713Z,-3.73
2016-11-30T02:21:07.273Z,-3.84
2016-11-30T02:22:08.247Z,-3.64
2016-11-30T02:23:07.799Z,-3.61
2016-11-30T02:24:07.983Z,-3.46
2016-11-30T02:25:07.523Z,-3.48
2016-11-30T02:26:08.016Z,-3.62
2016-11-30T02:27:07.558Z,-3.39
2016-11-30T02:28:08.003Z,-3.31
2016-11-30T02:29:08.030Z,-3.36
2016-11-30T02:30:07.523Z,-3.24
2016-11-30T02:31:08.039Z,-3.14
2016-11-30T02:32:07.813Z,-3.20
2016-11-30T02:33:07.332Z,-3.27
2016-11-30T02:34:07.884Z,-3.26
2016-11-30T02:35:08.087Z,-3.38
2016-11-30T02:36:08.044Z,-3.55
2016-11-30T02:37:07.351Z,-3.48
2016-11-30T02:38:07.184Z,-3.35
2016-11-30T02:39:07.753Z,-3.27
2016-11-30T02:40:07.101Z,-3.12
2016-11-30T02:41:07.683Z,-3.26
2016-11-30T02:42:07.212Z,-3.43
2016-11-30T02:43:07.723Z,-3.74
2016-11-30T02:44:07.114Z,-3.66
2016-11-30T02:45:07.665Z,-3.82
2016-11-30T02:46:07.750Z,-3.54
2016-11-30T02:47:07.267Z,-3.32
2016-11-30T02:48:07.467Z,-3.36
2016-11-30T02:49:08.058Z,-3.26
2016-11-30T02:50:07.684Z,-3.33
2016-11-30T02:51:07.785Z,-3.20
2016-11-30T02:52:08.043Z,-3.00
2016-11-30T02:53:07.601Z,-3.10
2016-11-30T02:54:07.109Z,-3.26
2016-11-30T02:55:07.619Z,-3.33
2016-11-30T02:56:07.478Z,-3.21
2016-11-30T02:57:08.072Z,-3.11
2016-11-30T02:58:07.632Z,-3.11
2016-11-30T02:59:07.256Z,-3.29
2016-11-30T03:00:07.802Z,-3.02
2016-11-30T03:01:07.229Z,-3.27
2016-11-30T03:02:07.755Z,-3.09
2016-11-30T03:03:07.487Z,-3.04
2016-11-30T03:04:08.039Z,-3.42
2016-11-30T03:05:08.006Z,-3.55
2016-11-30T03:06:07.785Z,-3.58
2016-11-30T03:07:07.270Z,-3.72
2016-11-30T03:08:07.900Z,-3.60
2016-11-30T03:09:07.432Z,-3.68
2016-11-30T03:10:07.877Z,-3.57
2016-11-30T03:11:08.219Z,-3.38
2016-11-30T03:12:08.173Z,-3.19
2016-11-30T03:13:07.878Z,-3.23
2016-11-30T03:14:07.751Z,-3.19
2016-11-30T03:15:07.221Z,-3.37
2016-11-30T03:16:07.799Z,-3.16
2016-11-30T03:17:07.421Z,-3.11
2016-11-30T03:18:08.005Z,-3.20
2016-11-30T03:19:07.552Z,-3.09
2016-11-30T03:20:07.270Z,-3.18
2016-11-30T03:21:07.475Z,-3.29
2016-11-30T03:22:08.071Z,-3.33
2016-11-30T03:23:19.318Z,-3.20
2016-11-30T03:24:08.210Z,-3.06
2016-11-30T03:25:07.851Z,-3.17
2016-11-30T03:26:07.889Z,-3.41
2016-11-30T03:27:07.620Z,-3.50
2016-11-30T03:28:07.116Z,-3.16
2016-11-30T03:29:07.930Z,-3.05
2016-11-30T03:30:07.470Z,-2.99
2016-11-30T03:31:07.890Z,-3.10
2016-11-30T03:32:07.574Z,-3.28
2016-11-30T03:33:07.686Z,-3.29
2016-11-30T03:34:07.165Z,-3.18
2016-11-30T03:35:07.620Z,-3.26
2016-11-30T03:36:08.049Z,-3.35
2016-11-30T03:37:07.632Z,-3.51
2016-11-30T03:38:07.143Z,-3.39
2016-11-30T03:39:07.627Z,-3.24
2016-11-30T03:40:07.079Z,-3.19
2016-11-30T03:41:07.680Z,-3.01
2016-11-30T03:42:07.245Z,-3.17
2016-11-30T03:43:07.805Z,-3.22
2016-11-30T03:44:07.323Z,-3.14
2016-11-30T03:45:07.906Z,-3.05
2016-11-30T03:46:07.472Z,-3.39
2016-11-30T03:47:08.054Z,-3.08
2016-11-30T03:48:07.713Z,-3.15
2016-11-30T03:49:07.277Z,-3.36
2016-11-30T03:50:07.741Z,-3.15
2016-11-30T03:51:07.253Z,-3.27
2016-11-30T03:52:07.753Z,-3.26
2016-11-30T03:53:07.332Z,-3.21
2016-11-30T03:54:07.962Z,-3.52
2016-11-30T03:55:07.540Z,-3.52
2016-11-30T03:56:08.183Z,-3.45
2016-11-30T03:57:07.794Z,-3.55
2016-11-30T03:58:07.319Z,-3.57
2016-11-30T03:59:08.377Z,-3.43
2016-11-30T04:00:08.447Z,-3.54
2016-11-30T04:01:08.062Z,-3.23
2016-11-30T04:02:07.660Z,-3.11
2016-11-30T04:03:07.134Z,-3.12
2016-11-30T04:04:07.740Z,-3.23
2016-11-30T04:05:07.631Z,-3.21
2016-11-30T04:06:07.203Z,-3.02
2016-11-30T04:07:07.773Z,-3.18
2016-11-30T04:08:07.430Z,-3.11
2016-11-30T04:09:08.051Z,-3.47
2016-11-30T04:10:07.682Z,-3.61
2016-11-30T04:11:07.162Z,-3.76
2016-11-30T04:12:07.803Z,-3.53
2016-11-30T04:13:07.391Z,-3.27
2016-11-30T04:14:07.974Z,-3.56
2016-11-30T04:15:07.585Z,-3.65
2016-11-30T04:16:07.127Z,-3.60
2016-11-30T04:17:07.698Z,-3.62
2016-11-30T04:18:08.190Z,-3.60
2016-11-30T04:19:07.611Z,-3.49
2016-11-30T04:20:08.193Z,-3.71
2016-11-30T04:21:07.692Z,-3.85
2016-11-30T04:22:07.451Z,-3.80
2016-11-30T04:23:08.146Z,-3.63
2016-11-30T04:24:07.732Z,-3.61
2016-11-30T04:25:07.332Z,-3.65
2016-11-30T04:26:07.953Z,-3.59
2016-11-30T04:27:07.492Z,-3.44
2016-11-30T04:28:08.008Z,-3.40
2016-11-30T04:29:07.506Z,-3.52
2016-11-30T04:30:08.120Z,-3.68
2016-11-30T04:31:07.610Z,-3.59
2016-11-30T04:32:07.237Z,-3.84
2016-11-30T04:33:07.849Z,-3.63
2016-11-30T04:34:07.391Z,-3.65
2016-11-30T04:35:07.959Z,-3.74
2016-11-30T04:36:07.512Z,-4.11
2016-11-30T04:37:08.058Z,-4.00
2016-11-30T04:38:07.917Z,-3.84
2016-11-30T04:39:07.736Z,-3.76
2016-11-30T04:40:07.345Z,-3.99
2016-11-30T04:41:07.893Z,-3.89
2016-11-30T04:42:07.530Z,-3.71
2016-11-30T04:43:08.190Z,-3.90
2016-11-30T04:44:07.790Z,-3.99
2016-11-30T04:45:07.409Z,-3.62
2016-11-30T04:46:08.037Z,-3.61
2016-11-30T04:47:07.606Z,-3.51
2016-11-30T04:48:07.192Z,-3.75
2016-11-30T04:49:07.882Z,-3.89
2016-11-30T04:50:07.514Z,-4.01
2016-11-30T04:51:08.143Z,-4.02
2016-11-30T04:52:07.824Z,-4.13
2016-11-30T04:53:07.653Z,-3.65
2016-11-30T04:54:07.249Z,-3.90
2016-11-30T04:55:08.027Z,-3.81
2016-11-30T04:56:08.007Z,-3.56
2016-11-30T04:57:07.712Z,-3.32
2016-11-30T04:58:07.475Z,-3.53
2016-11-30T04:59:08.242Z,-3.50
2016-11-30T05:00:08.051Z,-3.34
2016-11-30T05:01:07.532Z,-3.49
2016-11-30T05:02:08.131Z,-3.30
2016-11-30T05:03:07.705Z,-3.39
2016-11-30T05:04:07.271Z,-3.55
2016-11-30T05:05:07.942Z,-3.42
2016-11-30T05:06:07.493Z,-3.67
2016-11-30T05:07:08.072Z,-3.83
2016-11-30T05:08:07.828Z,-3.87
2016-11-30T05:09:07.294Z,-3.84
2016-11-30T05:10:07.704Z,-3.52
2016-11-30T05:11:07.225Z,-3.55
2016-11-30T05:12:07.803Z,-3.60
2016-11-30T05:13:07.395Z,-3.66
2016-11-30T05:14:07.957Z,-3.94
2016-11-30T05:15:07.451Z,-3.92
2016-11-30T05:16:07.989Z,-3.75
2016-11-30T05:17:08.060Z,-3.66
2016-11-30T05:18:07.837Z,-3.67
2016-11-30T05:19:07.378Z,-3.35
2016-11-30T05:20:07.873Z,-3.37
2016-11-30T05:21:07.402Z,-3.68
2016-11-30T05:22:07.893Z,-3.77
2016-11-30T05:23:07.417Z,-4.04
2016-11-30T05:24:08.063Z,-3.87
2016-11-30T05:25:09.960Z,-3.66
2016-11-30T05:26:07.862Z,-3.59
2016-11-30T05:27:07.369Z,-3.81
2016-11-30T05:28:07.508Z,-3.66
2016-11-30T05:29:08.117Z,-3.67
2016-11-30T05:30:08.178Z,-3.48
2016-11-30T05:31:07.823Z,-3.45
2016-11-30T05:32:07.355Z,-3.46
2016-11-30T05:33:07.911Z,-3.48
2016-11-30T05:34:07.522Z,-3.45
2016-11-30T05:35:08.109Z,-3.66
2016-11-30T05:36:07.771Z,-3.69
2016-11-30T05:37:07.248Z,-3.61
2016-11-30T05:38:07.874Z,-3.39
2016-11-30T05:39:08.656Z,-3.21
2016-11-30T05:40:07.255Z,-3.24
2016-11-30T05:41:07.972Z,-3.06
2016-11-30T05:42:07.544Z,-3.33
2016-11-30T05:43:08.100Z,-3.61
2016-11-30T05:44:07.591Z,-3.56
2016-11-30T05:45:07.255Z,-3.50
2016-11-30T05:46:07.929Z,-3.52
2016-11-30T05:47:07.484Z,-3.45
2016-11-30T05:48:07.976Z,-3.42
2016-11-30T05:49:07.158Z,-3.40
2016-11-30T05:50:07.732Z,-3.28
2016-11-30T05:51:07.537Z,-3.46
2016-11-30T05:52:07.722Z,-3.26
2016-11-30T05:53:07.544Z,-3.13
2016-11-30T05:54:08.178Z,-3.44
2016-11-30T05:55:07.735Z,-3.43
2016-11-30T05:56:07.290Z,-3.35
2016-11-30T05:57:07.865Z,-3.52
2016-11-30T05:58:07.967Z,-3.55
2016-11-30T05:59:07.139Z,-3.59
2016-11-30T06:00:07.820Z,-3.55
2016-11-30T06:01:07.476Z,-3.44
2016-11-30T06:02:08.057Z,-3.44
2016-11-30T06:03:07.586Z,-3.29
2016-11-30T06:04:07.225Z,-3.25
2016-11-30T06:05:07.798Z,-3.69
2016-11-30T06:06:07.454Z,-3.91
2016-11-30T06:07:07.969Z,-3.62
2016-11-30T06:08:07.488Z,-3.78
2016-11-30T06:09:08.171Z,-3.71
2016-11-30T06:10:07.860Z,-3.52
2016-11-30T06:11:07.427Z,-3.66
2016-11-30T06:12:07.878Z,-3.64
2016-11-30T06:13:07.983Z,-3.62
2016-11-30T06:14:07.601Z,-3.78
2016-11-30T06:15:07.154Z,-3.98
2016-11-30T06:16:07.816Z,-3.97
2016-11-30T06:17:07.482Z,-3.82
2016-11-30T06:18:08.156Z,-3.81
2016-11-30T06:19:07.650Z,-3.63
2016-11-30T06:20:07.204Z,-3.52
2016-11-30T06:21:07.800Z,-3.68
2016-11-30T06:22:07.389Z,-3.74
2016-11-30T06:23:08.002Z,-3.53
2016-11-30T06:24:07.508Z,-3.58
2016-11-30T06:25:08.085Z,-3.48
2016-11-30T06:26:07.575Z,-3.19
2016-11-30T06:27:07.518Z,-2.97
2016-11-30T06:28:08.017Z,-3.12
2016-11-30T06:29:08.196Z,-3.06
2016-11-30T06:30:08.968Z,-3.06
2016-11-30T06:31:07.560Z,-3.12
2016-11-30T06:32:08.143Z,-3.33
2016-11-30T06:33:07.824Z,-3.22
2016-11-30T06:34:07.454Z,-3.66
2016-11-30T06:35:08.006Z,-3.39
2016-11-30T06:36:07.539Z,-3.39
2016-11-30T06:37:08.064Z,-3.50
2016-11-30T06:38:07.359Z,-3.33
2016-11-30T06:39:07.998Z,-3.70
2016-11-30T06:40:08.597Z,-3.34
2016-11-30T06:41:07.239Z,-3.34
2016-11-30T06:42:07.811Z,-3.48
2016-11-30T06:43:07.346Z,-3.60
2016-11-30T06:44:07.929Z,-3.26
2016-11-30T06:45:07.439Z,-3.38
2016-11-30T06:46:08.049Z,-3.18
2016-11-30T06:47:07.535Z,-3.14
2016-11-30T06:48:07.971Z,-3.32
2016-11-30T06:49:08.057Z,-3.33
2016-11-30T06:50:07.651Z,-3.42
2016-11-30T06:51:07.199Z,-3.31
2016-11-30T06:52:07.730Z,-3.26
2016-11-30T06:53:07.283Z,-3.08
2016-11-30T06:54:07.772Z,-3.17
2016-11-30T06:55:07.329Z,-3.52
2016-11-30T06:56:07.858Z,-3.19
2016-11-30T06:57:07.918Z,-3.32
2016-11-30T06:58:07.390Z,-3.10
2016-11-30T06:59:07.960Z,-3.15
2016-11-30T07:00:07.723Z,-2.94
2016-11-30T07:01:09.620Z,-2.95
2016-11-30T07:02:07.288Z,-2.73
2016-11-30T07:03:08.029Z,-2.73
2016-11-30T07:04:07.574Z,-2.82
2016-11-30T07:05:08.122Z,-2.69
2016-11-30T07:06:07.671Z,-2.72
2016-11-30T07:07:08.173Z,-2.76
2016-11-30T07:08:07.677Z,-2.76
2016-11-30T07:09:07.267Z,-2.59
2016-11-30T07:10:07.923Z,-2.76
2016-11-30T07:11:07.513Z,-2.67
2016-11-30T07:12:08.116Z,-2.63
2016-11-30T07:13:07.639Z,-2.73
2016-11-30T07:14:07.676Z,-2.47
2016-11-30T07:15:07.072Z,-2.52
2016-11-30T07:16:07.646Z,-2.40
2016-11-30T07:17:13.139Z,-2.49
2016-11-30T07:18:07.941Z,-2.54
2016-11-30T07:19:08.164Z,-2.48
2016-11-30T07:20:07.775Z,-2.51
2016-11-30T07:21:07.255Z,-2.42
2016-11-30T07:22:07.831Z,-2.63
2016-11-30T07:23:07.392Z,-2.57
2016-11-30T07:24:08.019Z,-2.32
2016-11-30T07:25:07.500Z,-2.57
2016-11-30T07:26:08.120Z,-2.45
2016-11-30T07:27:07.717Z,-2.21
2016-11-30T07:28:07.253Z,-2.13
2016-11-30T07:29:07.804Z,-2.08
2016-11-30T07:30:07.343Z,-2.19
2016-11-30T07:31:07.944Z,-1.92
2016-11-30T07:32:07.523Z,-1.83
2016-11-30T07:33:08.163Z,-1.65
2016-11-30T07:34:07.648Z,-1.61
2016-11-30T07:35:07.209Z,-1.86
2016-11-30T07:36:07.677Z,-1.87
2016-11-30T07:37:07.156Z,-1.84
2016-11-30T07:38:07.819Z,-1.81
2016-11-30T07:39:07.393Z,-1.55
2016-11-30T07:40:07.938Z,-1.71
2016-11-30T07:41:07.447Z,-1.55
2016-11-30T07:42:08.119Z,-1.57
2016-11-30T07:43:07.129Z,-1.59
2016-11-30T07:44:07.581Z,-1.52
2016-11-30T07:45:07.805Z,-1.54
2016-11-30T07:46:07.365Z,-1.51
2016-11-30T07:47:07.968Z,-1.16
2016-11-30T07:48:07.583Z,-1.29
2016-11-30T07:49:07.138Z,-1.48
2016-11-30T07:50:07.691Z,-1.22
2016-11-30T07:51:07.355Z,-1.18
2016-11-30T07:52:07.528Z,-1.26
2016-11-30T07:53:08.148Z,-1.13
2016-11-30T07:54:07.718Z,-1.15
2016-11-30T07:55:07.319Z,-1.11
2016-11-30T07:56:07.976Z,-1.04
2016-11-30T07:57:07.460Z,-1.08
2016-11-30T07:58:08.135Z,-1.09
2016-11-30T07:59:07.671Z,-1.15
2016-11-30T08:00:07.180Z,-1.08
2016-11-30T08:01:07.847Z,-0.98
2016-11-30T08:02:07.532Z,-0.90
2016-11-30T08:03:07.798Z,-0.78
2016-11-30T08:04:07.442Z,-0.63
2016-11-30T08:05:08.047Z,-0.55
2016-11-30T08:06:07.567Z,-0.57
2016-11-30T08:07:08.236Z,-0.89
2016-11-30T08:08:39.283Z,-0.66
2016-11-30T08:09:07.975Z,-0.73
2016-11-30T08:10:07.515Z,-0.75
2016-11-30T08:11:08.140Z,-0.70
2016-11-30T08:12:07.931Z,-0.74
2016-11-30T08:13:07.516Z,-0.63
2016-11-30T08:14:08.072Z,-0.61
2016-11-30T08:15:07.392Z,-0.55
2016-11-30T08:16:08.021Z,-0.37
2016-11-30T08:17:07.762Z,-0.61
2016-11-30T08:18:07.311Z,-0.58
2016-11-30T08:19:07.884Z,-0.53
2016-11-30T08:20:07.488Z,-0.61
2016-11-30T08:21:08.143Z,-0.58
2016-11-30T08:22:07.728Z,-0.50
2016-11-30T08:23:07.309Z,-0.39
2016-11-30T08:24:07.815Z,-0.28
2016-11-30T08:25:07.426Z,-0.30
2016-11-30T08:26:07.994Z,-0.29
2016-11-30T08:27:07.635Z,-0.30
2016-11-30T08:28:07.069Z,-0.13
2016-11-30T08:29:07.640Z,-0.16
2016-11-30T08:30:07.144Z,-0.07
2016-11-30T08:31:07.705Z,-0.12
2016-11-30T08:32:07.243Z,0.02
2016-11-30T08:33:07.878Z,-0.05
2016-11-30T08:34:07.378Z,-0.03
2016-11-30T08:35:07.913Z,0.07
2016-11-30T08:36:07.513Z,-0.00
2016-11-30T08:37:39.684Z,0.04
2016-11-30T08:38:07.300Z,0.07
2016-11-30T08:39:07.853Z,0.04
2016-11-30T08:40:07.449Z,0.06
2016-11-30T08:41:08.146Z,0.13
2016-11-30T08:42:07.801Z,0.19
2016-11-30T08:43:07.315Z,0.27
2016-11-30T08:44:07.949Z,0.34
2016-11-30T08:45:07.457Z,0.29
2016-11-30T08:46:07.964Z,0.33
2016-11-30T08:47:07.484Z,0.21
2016-11-30T08:48:08.052Z,0.12
2016-11-30T08:49:07.672Z,0.27
2016-11-30T08:50:07.172Z,0.39
2016-11-30T08:51:07.742Z,0.44
2016-11-30T08:52:07.282Z,0.56
2016-11-30T08:53:07.886Z,0.52
2016-11-30T08:54:07.656Z,0.50
2016-11-30T08:55:07.170Z,0.59
2016-11-30T08:56:07.769Z,0.71
2016-11-30T08:57:07.317Z,0.77
2016-11-30T08:58:08.015Z,0.56
2016-11-30T08:59:07.621Z,0.68
2016-11-30T09:00:07.209Z,0.74
2016-11-30T09:01:07.788Z,0.63
2016-11-30T09:02:07.686Z,0.79
2016-11-30T09:03:07.666Z,0.80
2016-11-30T09:04:07.227Z,0.83
2016-11-30T09:05:07.788Z,0.80
2016-11-30T09:06:07.366Z,0.89
2016-11-30T09:07:07.977Z,0.96
2016-11-30T09:08:07.501Z,1.02
2016-11-30T09:09:08.089Z,1.10
2016-11-30T09:10:07.670Z,0.98
2016-11-30T09:11:07.184Z,0.96
2016-11-30T09:12:07.792Z,0.82
2016-11-30T09:13:07.458Z,1.02
2016-11-30T09:14:08.177Z,0.92
2016-11-30T09:15:08.075Z,0.94
2016-11-30T09:16:07.699Z,0.98
2016-11-30T09:17:07.425Z,1.09
2016-11-30T09:18:08.001Z,1.09
2016-11-30T09:19:07.643Z,0.94
2016-11-30T09:20:07.102Z,1.01
2016-11-30T09:21:07.670Z,1.16
2016-11-30T09:22:07.185Z,1.08
2016-11-30T09:23:07.777Z,1.24
2016-11-30T09:24:07.292Z,1.30
2016-11-30T09:25:07.962Z,1.12
2016-11-30T09:26:07.531Z,1.10
2016-11-30T09:27:08.203Z,1.32
2016-11-30T09:28:07.776Z,1.50
2016-11-30T09:29:07.491Z,1.54
2016-11-30T09:30:08.177Z,1.56
2016-11-30T09:31:42.016Z,1.72
2016-11-30T09:32:07.126Z,1.82
2016-11-30T09:33:07.718Z,1.88
2016-11-30T09:34:07.244Z,2.07
2016-11-30T09:35:07.820Z,2.08
2016-11-30T09:36:07.360Z,1.92
2016-11-30T09:37:08.002Z,1.96
2016-11-30T09:38:07.509Z,1.95
2016-11-30T09:39:07.933Z,1.96
2016-11-30T09:40:07.689Z,1.97
2016-11-30T09:41:07.304Z,2.04
2016-11-30T09:42:07.879Z,2.05
2016-11-30T09:43:07.429Z,2.08
2016-11-30T09:44:08.023Z,2.13
2016-11-30T09:45:07.601Z,2.13
2016-11-30T09:46:07.122Z,2.20
2016-11-30T09:47:07.580Z,2.19
2016-11-30T09:48:08.193Z,2.18
2016-11-30T09:49:07.829Z,2.20
2016-11-30T09:50:07.305Z,2.15
2016-11-30T09:51:07.958Z,2.14
2016-11-30T09:52:07.527Z,2.08
2016-11-30T09:53:08.140Z,2.22
2016-11-30T09:54:07.795Z,2.22
2016-11-30T09:55:07.375Z,2.30
2016-11-30T09:56:07.911Z,2.39
2016-11-30T09:57:07.432Z,2.41
2016-11-30T09:58:08.040Z,2.23
2016-11-30T09:59:07.621Z,2.30
2016-11-30T10:00:07.125Z,2.38
2016-11-30T10:01:07.732Z,2.43
2016-11-30T10:02:07.267Z,2.50
2016-11-30T10:03:07.822Z,2.50
2016-11-30T10:04:07.277Z,2.57
2016-11-30T10:05:07.885Z,2.59
2016-11-30T10:06:07.460Z,2.64
2016-11-30T10:07:08.069Z,2.65
2016-11-30T10:08:07.690Z,2.67
2016-11-30T10:09:07.229Z,2.58
2016-11-30T10:10:07.907Z,2.65
2016-11-30T10:11:07.447Z,2.74
2016-11-30T10:12:08.089Z,2.75
2016-11-30T10:13:07.663Z,2.84
2016-11-30T10:14:07.280Z,2.85
2016-11-30T10:15:07.885Z,2.93
2016-11-30T10:16:07.429Z,3.04
2016-11-30T10:17:08.205Z,3.00
2016-11-30T10:18:07.749Z,2.99
2016-11-30T10:19:07.248Z,3.04
2016-11-30T10:20:07.789Z,3.00
2016-11-30T10:21:07.380Z,3.09
2016-11-30T10:22:07.980Z,3.12
2016-11-30T10:23:07.477Z,3.08
2016-11-30T10:24:08.064Z,3.14
2016-11-30T10:25:07.654Z,3.25
2016-11-30T10:26:07.117Z,3.32
2016-11-30T10:27:07.726Z,3.34
2016-11-30T10:28:07.370Z,3.26
2016-11-30T10:29:08.024Z,3.25
2016-11-30T10:30:07.548Z,3.35
2016-11-30T10:31:08.179Z,3.38
2016-11-30T10:32:07.687Z,3.36
2016-11-30T10:33:07.241Z,3.39
2016-11-30T10:34:07.781Z,3.52
2016-11-30T10:35:07.302Z,3.52
2016-11-30T10:36:07.887Z,3.51
2016-11-30T10:37:07.459Z,3.45
2016-11-30T10:38:09.362Z,3.46
2016-11-30T10:39:07.942Z,3.60
2016-11-30T10:40:07.448Z,3.70
2016-11-30T10:41:08.054Z,3.74
2016-11-30T10:42:07.686Z,3.77
2016-11-30T10:43:07.210Z,3.73
2016-11-30T10:44:07.890Z,3.70
2016-11-30T10:45:07.437Z,3.78
2016-11-30T10:46:08.005Z,3.68
2016-11-30T10:47:07.606Z,3.57
2016-11-30T10:48:07.197Z,3.52
2016-11-30T10:49:07.741Z,3.49
2016-11-30T10:50:07.329Z,3.48
2016-11-30T10:51:07.907Z,3.56
2016-11-30T10:52:07.532Z,3.63
2016-11-30T10:53:08.068Z,3.50
2016-11-30T10:54:07.656Z,3.49
2016-11-30T10:55:07.251Z,3.46
2016-11-30T10:56:07.860Z,3.54
2016-11-30T10:57:07.433Z,3.54
2016-11-30T10:58:07.999Z,3.60
2016-11-30T10:59:07.577Z,3.55
2016-11-30T11:00:09.218Z,3.51
2016-11-30T11:01:07.184Z,3.56
2016-11-30T11:02:07.790Z,3.40
2016-11-30T11:03:07.359Z,3.49
2016-11-30T11:04:07.947Z,3.53
2016-11-30T11:05:07.432Z,3.48
2016-11-30T11:06:08.039Z,3.52
2016-11-30T11:07:07.655Z,3.61
2016-11-30T11:08:07.248Z,3.63
2016-11-30T11:09:07.743Z,3.69
2016-11-30T11:10:07.827Z,3.76
2016-11-30T11:11:07.407Z,3.77
2016-11-30T11:12:08.083Z,3.79
2016-11-30T11:13:07.571Z,3.75
2016-11-30T11:14:08.180Z,3.86
2016-11-30T11:15:07.809Z,3.81
2016-11-30T11:16:07.339Z,3.84
2016-11-30T11:17:08.074Z,3.81
2016-11-30T11:18:07.568Z,3.73
2016-11-30T11:19:07.156Z,3.86
2016-11-30T11:20:07.747Z,3.91
2016-11-30T11:21:07.317Z,3.88
2016-11-30T11:22:07.873Z,3.88
2016-11-30T11:23:07.377Z,3.96
2016-11-30T11:24:07.936Z,3.99
2016-11-30T11:25:08.723Z,4.04
2016-11-30T11:26:07.326Z,4.06
2016-11-30T11:27:07.915Z,4.09
2016-11-30T11:28:07.485Z,4.06
2016-11-30T11:29:08.235Z,4.09
2016-11-30T11:30:07.817Z,4.09
2016-11-30T11:31:07.322Z,4.22
2016-11-30T11:32:07.948Z,4.24
2016-11-30T11:33:07.432Z,4.27
2016-11-30T11:34:08.934Z,4.27
2016-11-30T11:35:07.750Z,4.25
2016-11-30T11:36:07.321Z,4.31
2016-11-30T11:37:07.936Z,4.28
2016-11-30T11:38:07.548Z,4.33
2016-11-30T11:39:08.223Z,4.38
2016-11-30T11:40:07.728Z,4.40
2016-11-30T11:41:07.310Z,4.45
2016-11-30T11:42:07.945Z,4.50
2016-11-30T11:43:07.447Z,4.51
2016-11-30T11:44:08.083Z,4.55
2016-11-30T11:45:07.693Z,4.53
2016-11-30T11:46:07.179Z,4.51
2016-11-30T11:47:07.810Z,4.51
2016-11-30T11:48:07.378Z,4.59
2016-11-30T11:49:07.952Z,4.62
2016-11-30T11:50:07.529Z,4.63
2016-11-30T11:51:08.210Z,4.68
2016-11-30T11:52:07.861Z,4.73
2016-11-30T11:53:07.485Z,4.74
2016-11-30T11:54:08.059Z,4.80
2016-11-30T11:55:07.687Z,4.78
2016-11-30T11:56:07.221Z,4.78
2016-11-30T11:57:07.850Z,4.80
2016-11-30T11:58:07.497Z,4.86
2016-11-30T11:59:08.080Z,4.91
2016-11-30T12:00:07.563Z,4.96
2016-11-30T12:01:08.137Z,5.03
2016-11-30T12:02:07.871Z,5.03
2016-11-30T12:03:07.352Z,5.06
2016-11-30T12:04:07.939Z,5.12
2016-11-30T12:05:07.423Z,5.14
2016-11-30T12:06:08.032Z,5.17
2016-11-30T12:07:07.557Z,5.23
2016-11-30T12:08:08.427Z,5.35
2016-11-30T12:09:08.067Z,5.41
2016-11-30T12:10:07.643Z,5.39
2016-11-30T12:11:08.165Z,5.40
2016-11-30T12:12:07.799Z,5.41
2016-11-30T12:13:07.289Z,5.46
2016-11-30T12:14:07.922Z,5.47
2016-11-30T12:15:07.535Z,5.48
2016-11-30T12:16:08.056Z,5.45
2016-11-30T12:17:07.856Z,5.46
2016-11-30T12:18:07.538Z,5.46
2016-11-30T12:19:08.128Z,5.40
2016-11-30T12:20:07.791Z,5.42
2016-11-30T12:21:07.389Z,5.42
2016-11-30T12:22:08.043Z,5.43
2016-11-30T12:23:07.538Z,5.39
2016-11-30T12:24:08.142Z,5.41
2016-11-30T12:25:07.645Z,5.41
2016-11-30T12:26:07.209Z,5.37
2016-11-30T12:27:07.818Z,5.43
2016-11-30T12:28:07.336Z,5.41
2016-11-30T12:29:07.994Z,5.39
2016-11-30T12:30:07.559Z,5.26
2016-11-30T12:31:08.062Z,5.29
2016-11-30T12:32:07.634Z,5.34
2016-11-30T12:33:07.225Z,5.35
2016-11-30T12:34:07.739Z,5.38
2016-11-30T12:35:07.317Z,5.40
2016-11-30T12:36:07.974Z,5.45
2016-11-30T12:37:07.708Z,5.54
2016-11-30T12:38:07.200Z,5.55
2016-11-30T12:39:07.806Z,5.59
2016-11-30T12:40:07.310Z,5.59
2016-11-30T12:41:07.930Z,5.61
2016-11-30T12:42:07.555Z,5.62
2016-11-30T12:43:08.238Z,5.64
2016-11-30T12:44:07.770Z,5.67
2016-11-30T12:45:07.379Z,5.68
2016-11-30T12:46:07.947Z,5.81
2016-11-30T12:47:07.465Z,5.84
2016-11-30T12:48:08.127Z,5.87
2016-11-30T12:49:08.562Z,5.90
2016-11-30T12:50:07.549Z,5.81
2016-11-30T12:51:08.229Z,5.77
2016-11-30T12:52:07.804Z,5.83
2016-11-30T12:53:07.349Z,5.84
2016-11-30T12:54:07.889Z,5.83
2016-11-30T12:55:07.407Z,5.89
2016-11-30T12:56:08.000Z,5.88
2016-11-30T12:57:07.567Z,5.88
2016-11-30T12:58:08.198Z,5.89
2016-11-30T12:59:07.821Z,5.92
2016-11-30T13:00:07.344Z,5.90
2016-11-30T13:01:07.930Z,5.89